createdAt,value
2018-02-22T00:00:31.751Z,2.55
2018-02-22T00:03:00.161Z,3.02
2018-02-22T00:05:28.564Z,2.84
2018-02-22T00:07:56.965Z,3.34
2018-02-22T00:10:28.425Z,3.44
2018-02-22T00:12:56.894Z,3.61
2018-02-22T00:15:25.310Z,2.57
2018-02-22T00:17:53.694Z,1.99
2018-02-22T00:20:22.112Z,3.08
2018-02-22T00:22:50.582Z,3.52
2018-02-22T00:25:19.126Z,3.11
2018-02-22T00:27:47.536Z,2.43
2018-02-22T00:30:15.945Z,3.32
2018-02-22T00:32:44.355Z,2.82
2018-02-22T00:35:12.760Z,2.62
2018-02-22T00:37:41.240Z,2.58
2018-02-22T00:40:09.650Z,2.13
2018-02-22T00:42:38.073Z,3.00
2018-02-22T00:45:06.507Z,1.87
2018-02-22T00:47:34.910Z,2.83
2018-02-22T00:50:03.378Z,3.24
2018-02-22T00:52:31.783Z,1.38
2018-02-22T00:55:00.182Z,1.92
2018-02-22T00:57:28.573Z,1.46
2018-02-22T00:59:57.098Z,1.96
2018-02-22T01:02:25.674Z,1.74
2018-02-22T01:04:54.062Z,2.07
2018-02-22T01:07:22.453Z,2.70
2018-02-22T01:09:50.872Z,1.52
2018-02-22T01:12:19.336Z,2.47
2018-02-22T01:14:47.811Z,2.19
2018-02-22T01:17:16.214Z,2.55
2018-02-22T01:19:44.621Z,2.06
2018-02-22T01:22:13.031Z,1.22
2018-02-22T01:24:41.426Z,1.90
2018-02-22T01:27:09.828Z,2.08
2018-02-22T01:29:38.241Z,2.63
2018-02-22T01:32:06.637Z,2.85
2018-02-22T01:34:35.053Z,1.72
2018-02-22T01:37:04.088Z,1.32
2018-02-22T01:39:32.481Z,1.51
2018-02-22T01:42:00.871Z,1.75
2018-02-22T01:44:29.271Z,2.23
2018-02-22T01:46:57.663Z,1.87
2018-02-22T01:49:26.060Z,1.90
2018-02-22T01:51:54.548Z,1.63
2018-02-22T01:54:22.952Z,1.58
2018-02-22T01:56:51.335Z,1.99
2018-02-22T01:59:19.748Z,1.46
2018-02-22T02:01:48.674Z,1.59
2018-02-22T02:04:17.083Z,1.41
2018-02-22T02:06:45.482Z,1.95
2018-02-22T02:09:13.937Z,2.62
2018-02-22T02:11:42.334Z,1.87
2018-02-22T02:14:10.725Z,0.98
2018-02-22T02:16:39.149Z,1.70
2018-02-22T02:19:07.576Z,2.06
2018-02-22T02:21:36.056Z,1.91
2018-02-22T02:24:04.460Z,2.40
2018-02-22T02:26:32.959Z,1.39
2018-02-22T02:29:01.342Z,1.99
2018-02-22T02:31:29.832Z,2.27
2018-02-22T02:33:58.218Z,2.44
2018-02-22T02:36:26.634Z,2.33
2018-02-22T02:38:55.106Z,1.99
2018-02-22T02:41:23.499Z,2.01
2018-02-22T02:43:51.884Z,2.33
2018-02-22T02:46:20.292Z,3.10
2018-02-22T02:51:23.257Z,2.29
2018-02-22T02:53:51.740Z,3.36
2018-02-22T02:56:20.133Z,3.24
2018-02-22T02:58:48.543Z,2.33
2018-02-22T03:01:16.942Z,3.06
2018-02-22T03:03:45.356Z,3.17
2018-02-22T03:06:13.760Z,3.11
2018-02-22T03:08:42.167Z,2.78
2018-02-22T03:11:10.574Z,3.30
2018-02-22T03:13:38.997Z,3.32
2018-02-22T03:16:07.391Z,2.66
2018-02-22T03:18:35.800Z,2.65
2018-02-22T03:21:04.232Z,2.71
2018-02-22T03:23:32.642Z,3.09
2018-02-22T03:26:01.156Z,2.60
2018-02-22T03:28:29.564Z,2.77
2018-02-22T03:30:57.981Z,2.34
2018-02-22T03:33:26.469Z,2.85
2018-02-22T03:35:54.839Z,3.00
2018-02-22T03:38:23.335Z,3.01
2018-02-22T03:40:51.829Z,2.77
2018-02-22T03:43:20.247Z,2.80
2018-02-22T03:45:48.939Z,2.88
2018-02-22T03:48:17.306Z,2.29
2018-02-22T03:50:45.743Z,2.65
2018-02-22T03:53:14.111Z,2.74
2018-02-22T03:55:42.514Z,2.49
2018-02-22T03:58:10.904Z,2.31
2018-02-22T04:00:39.421Z,2.39
2018-02-22T04:03:07.792Z,2.58
2018-02-22T04:05:36.256Z,2.79
2018-02-22T04:08:04.622Z,2.37
2018-02-22T04:10:33.094Z,2.57
2018-02-22T04:13:01.506Z,2.33
2018-02-22T04:15:29.929Z,1.80
2018-02-22T04:17:58.487Z,2.08
2018-02-22T04:20:26.892Z,2.50
2018-02-22T04:22:55.253Z,2.62
2018-02-22T04:25:23.743Z,2.58
2018-02-22T04:27:52.118Z,2.64
2018-02-22T04:30:20.612Z,2.62
2018-02-22T04:32:48.988Z,2.36
2018-02-22T04:35:17.398Z,2.43
2018-02-22T04:37:45.767Z,2.23
2018-02-22T04:40:14.134Z,2.34
2018-02-22T04:42:42.574Z,2.51
2018-02-22T04:45:10.966Z,2.52
2018-02-22T04:47:39.373Z,2.17
2018-02-22T04:50:07.752Z,2.32
2018-02-22T04:52:36.129Z,1.84
2018-02-22T04:55:04.584Z,2.12
2018-02-22T04:57:32.978Z,2.26
2018-02-22T05:00:02.386Z,2.33
2018-02-22T05:02:30.779Z,2.31
2018-02-22T05:04:59.141Z,1.65
2018-02-22T05:07:27.585Z,0.97
2018-02-22T05:09:56.006Z,2.11
2018-02-22T05:12:24.397Z,2.01
2018-02-22T05:14:52.800Z,2.03
2018-02-22T05:17:21.162Z,2.35
2018-02-22T05:19:49.609Z,2.23
2018-02-22T05:22:18.007Z,2.08
2018-02-22T05:24:46.383Z,1.88
2018-02-22T05:27:14.765Z,2.05
2018-02-22T05:29:43.143Z,1.96
2018-02-22T05:32:11.621Z,2.11
2018-02-22T05:34:40.030Z,1.85
2018-02-22T05:37:08.400Z,1.95
2018-02-22T05:39:36.769Z,2.06
2018-02-22T05:42:05.158Z,1.89
2018-02-22T05:44:33.699Z,1.97
2018-02-22T05:47:02.091Z,2.06
2018-02-22T05:49:30.464Z,1.77
2018-02-22T05:51:58.844Z,1.93
2018-02-22T05:54:27.215Z,1.21
2018-02-22T05:56:55.663Z,1.95
2018-02-22T05:59:24.084Z,1.99
2018-02-22T06:01:52.454Z,1.91
2018-02-22T06:04:20.867Z,1.91
2018-02-22T06:06:49.354Z,1.95
2018-02-22T06:09:17.802Z,1.75
2018-02-22T06:11:46.194Z,1.92
2018-02-22T06:14:14.571Z,1.39
2018-02-22T06:16:42.948Z,1.57
2018-02-22T06:19:11.323Z,1.58
2018-02-22T06:21:39.762Z,1.97
2018-02-22T06:24:08.165Z,1.43
2018-02-22T06:26:36.546Z,1.86
2018-02-22T06:29:04.935Z,1.57
2018-02-22T06:31:33.308Z,1.39
2018-02-22T06:34:01.763Z,1.35
2018-02-22T06:36:30.485Z,1.62
2018-02-22T06:38:58.881Z,1.20
2018-02-22T06:41:27.378Z,1.84
2018-02-22T06:43:55.774Z,1.69
2018-02-22T06:46:24.211Z,1.77
2018-02-22T06:48:52.620Z,2.15
2018-02-22T06:51:21.883Z,2.30
2018-02-22T06:53:50.266Z,2.18
2018-02-22T06:56:18.658Z,2.54
2018-02-22T06:58:47.182Z,2.29
2018-02-22T07:01:15.560Z,2.69
2018-02-22T07:03:43.931Z,2.42
2018-02-22T07:06:12.308Z,2.30
2018-02-22T07:08:40.805Z,2.42
2018-02-22T07:11:09.271Z,2.27
2018-02-22T07:13:37.677Z,2.64
2018-02-22T07:16:06.045Z,2.50
2018-02-22T07:18:34.420Z,2.64
2018-02-22T07:21:02.918Z,2.72
2018-02-22T07:23:31.374Z,2.63
2018-02-22T07:25:59.870Z,2.93
2018-02-22T07:28:28.240Z,2.48
2018-02-22T07:30:56.636Z,2.78
2018-02-22T07:33:25.013Z,2.62
2018-02-22T07:35:53.774Z,3.32
2018-02-22T07:38:22.281Z,1.87
2018-02-22T07:40:50.659Z,2.87
2018-02-22T07:43:19.055Z,3.52
2018-02-22T07:45:47.436Z,3.16
2018-02-22T07:48:15.871Z,3.07
2018-02-22T07:50:44.313Z,3.53
2018-02-22T07:53:12.693Z,3.62
2018-02-22T07:55:41.070Z,2.99
2018-02-22T07:58:09.480Z,3.55
2018-02-22T08:00:38.104Z,2.38
2018-02-22T08:03:06.482Z,3.51
2018-02-22T08:05:35.022Z,3.94
2018-02-22T08:08:03.364Z,4.06
2018-02-22T08:10:31.744Z,3.46
2018-02-22T08:13:00.194Z,4.02
2018-02-22T08:15:28.562Z,4.14
2018-02-22T08:17:56.925Z,4.44
2018-02-22T08:20:25.335Z,3.24
2018-02-22T08:22:53.713Z,4.38
2018-02-22T08:25:22.180Z,4.36
2018-02-22T08:27:50.686Z,5.37
2018-02-22T08:30:19.206Z,5.44
2018-02-22T08:32:47.671Z,5.33
2018-02-22T08:35:16.059Z,5.91
2018-02-22T08:37:44.438Z,6.71
2018-02-22T08:40:12.822Z,6.58
2018-02-22T08:42:41.356Z,6.79
2018-02-22T08:45:09.736Z,6.57
2018-02-22T08:47:38.102Z,6.93
2018-02-22T08:50:06.551Z,6.68
2018-02-22T08:52:35.074Z,5.87
2018-02-22T08:55:03.587Z,6.53
2018-02-22T08:57:32.158Z,5.86
2018-02-22T09:00:00.533Z,6.21
2018-02-22T09:02:28.916Z,5.26
2018-02-22T09:04:57.301Z,6.70
2018-02-22T09:07:25.756Z,5.52
2018-02-22T09:09:54.138Z,5.74
2018-02-22T09:12:22.523Z,6.43
2018-02-22T09:14:50.910Z,6.38
2018-02-22T09:17:19.316Z,7.69
2018-02-22T09:19:47.792Z,8.70
2018-02-22T09:22:16.197Z,8.62
2018-02-22T09:24:44.552Z,8.96
2018-02-22T09:27:13.015Z,9.04
2018-02-22T09:29:41.434Z,10.12
2018-02-22T09:32:09.867Z,8.44
2018-02-22T09:34:38.234Z,8.33
2018-02-22T09:37:06.631Z,8.17
2018-02-22T09:39:35.019Z,9.62
2018-02-22T09:42:03.436Z,9.26
2018-02-22T09:44:31.981Z,9.39
2018-02-22T09:47:00.357Z,8.43
2018-02-22T09:49:28.773Z,9.43
2018-02-22T09:51:57.122Z,9.38
2018-02-22T09:54:25.482Z,9.25
2018-02-22T09:56:53.923Z,9.01
2018-02-22T09:59:22.307Z,7.97
2018-02-22T10:01:50.667Z,9.04
2018-02-22T10:04:19.063Z,5.78
2018-02-22T10:06:47.434Z,5.73
2018-02-22T10:09:16.074Z,6.71
2018-02-22T10:11:44.499Z,6.78
2018-02-22T10:14:12.962Z,7.21
2018-02-22T10:16:41.349Z,7.76
2018-02-22T10:19:09.711Z,7.60
2018-02-22T10:21:38.143Z,7.69
2018-02-22T10:24:06.532Z,6.46
2018-02-22T10:26:34.948Z,7.15
2018-02-22T10:29:04.262Z,7.25
2018-02-22T10:31:32.653Z,7.18
2018-02-22T10:34:01.089Z,8.03
2018-02-22T10:36:29.602Z,7.67
2018-02-22T10:38:57.983Z,7.80
2018-02-22T10:41:26.348Z,9.46
2018-02-22T10:43:54.721Z,8.72
2018-02-22T10:46:23.264Z,8.56
2018-02-22T10:48:51.722Z,6.86
2018-02-22T10:51:20.107Z,7.69
2018-02-22T10:53:48.473Z,7.18
2018-02-22T10:56:16.834Z,8.26
2018-02-22T10:58:45.208Z,8.09
2018-02-22T11:01:19.148Z,5.65
2018-02-22T11:03:47.536Z,6.81
2018-02-22T11:06:15.909Z,7.63
2018-02-22T11:08:44.301Z,6.53
2018-02-22T11:11:12.663Z,7.40
2018-02-22T11:13:41.139Z,8.39
2018-02-22T11:16:09.585Z,8.56
2018-02-22T11:18:37.991Z,7.80
2018-02-22T11:21:06.399Z,7.12
2018-02-22T11:23:34.875Z,6.73
2018-02-22T11:26:03.272Z,7.07
2018-02-22T11:28:31.685Z,7.28
2018-02-22T11:31:00.164Z,7.13
2018-02-22T11:33:28.587Z,6.70
2018-02-22T11:35:57.049Z,6.33
2018-02-22T11:38:25.521Z,6.39
2018-02-22T11:40:53.915Z,6.10
2018-02-22T11:43:22.411Z,5.50
2018-02-22T11:45:50.892Z,6.48
2018-02-22T11:48:19.282Z,6.61
2018-02-22T11:50:47.678Z,6.40
2018-02-22T11:53:16.142Z,5.62
2018-02-22T11:55:44.549Z,6.19
2018-02-22T11:58:12.986Z,6.47
2018-02-22T12:00:41.472Z,6.73
2018-02-22T12:03:09.908Z,6.79
2018-02-22T12:05:38.417Z,6.92
2018-02-22T12:08:07.185Z,5.59
2018-02-22T12:10:35.601Z,6.73
2018-02-22T12:13:04.023Z,5.87
2018-02-22T12:15:32.551Z,6.15
2018-02-22T12:18:00.965Z,6.05
2018-02-22T12:20:29.361Z,6.38
2018-02-22T12:22:57.988Z,5.73
2018-02-22T12:25:26.382Z,5.29
2018-02-22T12:27:54.755Z,6.34
2018-02-22T12:30:23.192Z,8.21
2018-02-22T12:32:51.570Z,8.31
2018-02-22T12:35:20.054Z,10.23
2018-02-22T12:37:48.522Z,10.12
2018-02-22T12:40:16.922Z,10.27
2018-02-22T12:42:45.318Z,10.48
2018-02-22T12:45:13.819Z,10.76
2018-02-22T12:47:42.303Z,12.27
2018-02-22T12:50:10.691Z,10.99
2018-02-22T12:52:39.097Z,10.36
2018-02-22T12:55:07.569Z,9.86
2018-02-22T12:57:36.054Z,10.50
2018-02-22T13:00:04.462Z,10.25
2018-02-22T13:02:32.867Z,8.58
2018-02-22T13:05:01.283Z,8.03
2018-02-22T13:07:29.769Z,7.71
2018-02-22T13:09:58.284Z,7.36
2018-02-22T13:12:26.688Z,6.28
2018-02-22T13:14:55.068Z,7.48
2018-02-22T13:17:23.503Z,5.92
2018-02-22T13:19:51.974Z,6.51
2018-02-22T13:22:20.366Z,6.38
2018-02-22T13:24:48.768Z,5.89
2018-02-22T13:27:17.233Z,6.25
2018-02-22T13:29:45.637Z,6.16
2018-02-22T13:32:14.095Z,7.27
2018-02-22T13:34:42.488Z,7.54
2018-02-22T13:37:22.727Z,8.10
2018-02-22T13:39:51.138Z,7.25
2018-02-22T13:42:19.535Z,7.03
2018-02-22T13:44:59.625Z,7.01
2018-02-22T13:47:28.099Z,6.70
2018-02-22T13:50:08.110Z,7.39
2018-02-22T13:52:36.579Z,6.79
2018-02-22T13:55:05.243Z,6.67
2018-02-22T13:57:33.650Z,7.01
2018-02-22T14:00:02.052Z,4.77
2018-02-22T14:02:30.431Z,5.84
2018-02-22T14:04:58.887Z,5.36
2018-02-22T14:07:27.278Z,5.93
2018-02-22T14:09:55.851Z,4.92
2018-02-22T14:12:25.145Z,5.33
2018-02-22T14:14:53.514Z,5.94
2018-02-22T14:17:21.880Z,5.00
2018-02-22T14:19:50.283Z,6.07
2018-02-22T14:22:18.719Z,5.67
2018-02-22T14:24:47.094Z,4.89
2018-02-22T14:27:15.494Z,5.47
2018-02-22T14:29:43.885Z,5.49
2018-02-22T14:32:12.267Z,6.32
2018-02-22T14:34:40.726Z,5.95
2018-02-22T14:37:09.103Z,5.92
2018-02-22T14:39:37.472Z,6.70
2018-02-22T14:42:06.034Z,6.82
2018-02-22T14:44:34.415Z,5.79
2018-02-22T14:47:02.781Z,6.26
2018-02-22T14:49:31.209Z,6.39
2018-02-22T14:51:59.623Z,5.20
2018-02-22T14:54:28.019Z,6.82
2018-02-22T14:56:56.555Z,6.44
2018-02-22T14:59:24.941Z,6.66
2018-02-22T15:01:53.324Z,4.79
2018-02-22T15:04:21.784Z,4.84
2018-02-22T15:06:50.150Z,3.54
2018-02-22T15:09:18.610Z,5.46
2018-02-22T15:11:47.046Z,5.38
2018-02-22T15:14:15.445Z,5.51
2018-02-22T15:16:43.832Z,5.29
2018-02-22T15:19:12.400Z,6.12
2018-02-22T15:21:40.777Z,6.31
2018-02-22T15:24:09.191Z,5.81
2018-02-22T15:26:37.637Z,5.36
2018-02-22T15:29:06.010Z,5.49
2018-02-22T15:31:34.456Z,6.37
2018-02-22T15:34:02.819Z,4.87
2018-02-22T15:36:31.295Z,5.26
2018-02-22T15:38:59.828Z,5.64
2018-02-22T15:41:28.220Z,4.75
2018-02-22T15:43:56.605Z,4.64
2018-02-22T15:46:24.996Z,4.61
2018-02-22T15:48:53.381Z,4.34
2018-02-22T15:51:21.849Z,4.97
2018-02-22T15:53:50.238Z,4.85
2018-02-22T15:56:18.699Z,4.12
2018-02-22T15:58:47.106Z,4.52
2018-02-22T16:01:15.495Z,3.81
2018-02-22T16:03:43.961Z,4.88
2018-02-22T16:06:12.346Z,4.07
2018-02-22T16:08:40.726Z,4.42
2018-02-22T16:11:09.284Z,4.68
2018-02-22T16:13:37.845Z,5.02
2018-02-22T16:16:06.626Z,4.73
2018-02-22T16:18:35.219Z,4.48
2018-02-22T16:21:03.762Z,4.22
2018-02-22T16:23:32.144Z,4.23
2018-02-22T16:26:00.616Z,3.80
2018-02-22T16:28:28.998Z,4.58
2018-02-22T16:30:57.385Z,3.69
2018-02-22T16:33:25.824Z,4.39
2018-02-22T16:35:54.228Z,4.80
2018-02-22T16:38:22.609Z,4.50
2018-02-22T16:40:50.989Z,2.52
2018-02-22T16:43:19.380Z,3.93
2018-02-22T16:45:48.114Z,4.70
2018-02-22T16:48:16.509Z,3.47
2018-02-22T16:50:44.896Z,2.87
2018-02-22T16:53:13.283Z,2.93
2018-02-22T16:55:41.682Z,3.32
2018-02-22T16:58:10.121Z,2.95
2018-02-22T17:00:38.511Z,3.86
2018-02-22T17:03:06.899Z,4.27
2018-02-22T17:05:35.298Z,3.66
2018-02-22T17:08:03.696Z,3.96
2018-02-22T17:10:32.202Z,3.08
2018-02-22T17:13:00.598Z,3.71
2018-02-22T17:15:28.979Z,3.16
2018-02-22T17:17:57.376Z,3.96
2018-02-22T17:20:25.765Z,4.01
2018-02-22T17:22:54.235Z,4.14
2018-02-22T17:25:22.258Z,3.08
2018-02-22T17:27:56.286Z,3.21
2018-02-22T17:30:31.082Z,4.11
2018-02-22T17:32:59.540Z,3.63
2018-02-22T17:35:33.513Z,3.55
2018-02-22T17:41:11.795Z,4.16
2018-02-22T17:43:40.314Z,4.41
2018-02-22T17:46:08.692Z,4.13
2018-02-22T17:48:37.123Z,3.37
2018-02-22T17:51:05.481Z,3.72
2018-02-22T17:53:33.900Z,4.76
2018-02-22T17:56:02.254Z,3.84
2018-02-22T17:58:30.646Z,3.49
2018-02-22T18:00:59.017Z,2.38
2018-02-22T18:03:27.542Z,3.55
2018-02-22T18:05:56.073Z,3.35
2018-02-22T18:08:24.440Z,2.91
2018-02-22T18:10:52.795Z,2.66
2018-02-22T18:13:21.150Z,3.39
2018-02-22T18:15:49.524Z,2.72
2018-02-22T18:18:17.956Z,3.55
2018-02-22T18:20:46.325Z,4.05
2018-02-22T18:23:14.709Z,3.96
2018-02-22T18:25:43.087Z,3.45
2018-02-22T18:28:11.531Z,3.72
2018-02-22T18:30:40.033Z,3.12
2018-02-22T18:33:08.414Z,2.56
2018-02-22T18:35:36.765Z,2.82
2018-02-22T18:38:05.147Z,2.69
2018-02-22T18:40:39.127Z,2.19
2018-02-22T18:43:13.213Z,2.70
2018-02-22T18:45:41.588Z,2.82
2018-02-22T18:48:10.060Z,2.41
2018-02-22T18:50:38.447Z,3.44
2018-02-22T18:53:06.847Z,1.96
2018-02-22T18:55:35.227Z,2.16
2018-02-22T18:58:03.627Z,1.55
2018-02-22T19:00:32.048Z,2.87
2018-02-22T19:03:00.428Z,2.08
2018-02-22T19:05:28.818Z,2.66
2018-02-22T19:07:57.224Z,2.34
2018-02-22T19:10:25.589Z,3.21
2018-02-22T19:12:54.013Z,2.39
2018-02-22T19:15:22.477Z,2.89
2018-02-22T19:17:50.857Z,3.36
2018-02-22T19:20:19.243Z,2.12
2018-02-22T19:22:47.616Z,3.26
2018-02-22T19:25:16.027Z,2.71
2018-02-22T19:27:44.407Z,2.75
2018-02-22T19:30:12.769Z,3.13
2018-02-22T19:32:41.248Z,2.19
2018-02-22T19:35:09.612Z,2.64
2018-02-22T19:37:38.418Z,3.47
2018-02-22T19:40:06.791Z,3.45
2018-02-22T19:42:35.156Z,3.09
2018-02-22T19:45:03.527Z,2.70
2018-02-22T19:47:32.142Z,3.08
2018-02-22T19:50:00.550Z,4.08
2018-02-22T19:52:28.958Z,3.29
2018-02-22T19:54:57.319Z,2.33
2018-02-22T19:57:25.756Z,2.21
2018-02-22T19:59:54.292Z,2.29
2018-02-22T20:02:22.709Z,2.46
2018-02-22T20:04:51.085Z,2.56
2018-02-22T20:07:19.450Z,1.95
2018-02-22T20:09:47.815Z,1.75
2018-02-22T20:12:16.265Z,2.93
2018-02-22T20:14:44.971Z,3.32
2018-02-22T20:17:13.343Z,3.17
2018-02-22T20:19:41.707Z,3.15
2018-02-22T20:22:10.079Z,2.67
2018-02-22T20:24:38.449Z,1.47
2018-02-22T20:27:06.857Z,3.13
2018-02-22T20:29:35.220Z,1.91
2018-02-22T20:32:03.725Z,2.75
2018-02-22T20:34:32.086Z,3.54
2018-02-22T20:37:00.461Z,3.44
2018-02-22T20:39:28.818Z,3.28
2018-02-22T20:41:57.179Z,3.00
2018-02-22T20:44:25.576Z,3.39
2018-02-22T20:46:53.950Z,2.36
2018-02-22T20:49:22.326Z,3.39
2018-02-22T20:51:50.885Z,3.53
2018-02-22T20:54:19.288Z,3.99
2018-02-22T20:56:47.694Z,3.39
2018-02-22T20:59:16.145Z,3.81
2018-02-22T21:01:44.595Z,2.09
2018-02-22T21:04:14.026Z,3.63
2018-02-22T21:06:42.671Z,2.64
2018-02-22T21:09:11.308Z,3.24
2018-02-22T21:11:39.705Z,2.83
2018-02-22T21:14:08.261Z,4.42
2018-02-22T21:16:36.657Z,3.05
2018-02-22T21:19:05.136Z,2.83
2018-02-22T21:21:33.526Z,3.84
2018-02-22T21:24:01.928Z,3.86
2018-02-22T21:26:31.379Z,3.97
2018-02-22T21:28:59.764Z,3.05
2018-02-22T21:31:31.245Z,3.17
2018-02-22T21:33:59.732Z,2.53
2018-02-22T21:36:28.488Z,2.31
2018-02-22T21:38:56.880Z,2.32
2018-02-22T21:41:31.538Z,2.61
2018-02-22T21:43:59.973Z,2.62
2018-02-22T21:46:29.160Z,1.99
2018-02-22T21:48:57.617Z,1.82
2018-02-22T21:51:25.991Z,2.05
2018-02-22T21:53:54.342Z,3.08
2018-02-22T21:56:23.080Z,2.98
2018-02-22T21:58:51.442Z,3.65
2018-02-22T22:01:19.823Z,3.41
2018-02-22T22:03:48.185Z,3.15
2018-02-22T22:06:16.537Z,3.21
2018-02-22T22:08:45.270Z,3.25
2018-02-22T22:11:13.638Z,3.65
2018-02-22T22:13:42.008Z,3.58
2018-02-22T22:16:10.360Z,3.68
2018-02-22T22:18:39.095Z,3.43
2018-02-22T22:21:07.605Z,3.74
2018-02-22T22:23:36.254Z,2.83
2018-02-22T22:26:04.632Z,2.63
2018-02-22T22:28:32.993Z,3.10
2018-02-22T22:31:01.464Z,2.91
2018-02-22T22:33:29.932Z,3.19
2018-02-22T22:35:58.286Z,2.94
2018-02-22T22:38:26.654Z,3.01
2018-02-22T22:40:55.029Z,3.06
2018-02-22T22:43:23.506Z,2.48
2018-02-22T22:45:51.926Z,2.69
2018-02-22T22:48:20.399Z,3.07
2018-02-22T22:50:48.753Z,2.35
2018-02-22T22:53:17.116Z,2.13
2018-02-22T22:55:45.476Z,2.67
2018-02-22T22:58:13.867Z,2.10
2018-02-22T23:00:42.278Z,2.61
2018-02-22T23:03:10.634Z,2.79
2018-02-22T23:05:39.020Z,2.73
2018-02-22T23:08:07.386Z,2.13
2018-02-22T23:10:35.861Z,2.72
2018-02-22T23:13:04.219Z,2.48
2018-02-22T23:15:32.603Z,2.21
2018-02-22T23:18:00.969Z,3.17
2018-02-22T23:20:29.317Z,2.82
2018-02-22T23:22:57.694Z,3.06
2018-02-22T23:25:26.048Z,2.71
2018-02-22T23:27:54.410Z,2.41
2018-02-22T23:30:22.762Z,2.35
2018-02-22T23:32:51.120Z,2.58
2018-02-22T23:35:19.518Z,2.10
2018-02-22T23:37:47.906Z,2.61
2018-02-22T23:40:16.350Z,3.47
2018-02-22T23:42:44.740Z,3.61
2018-02-22T23:45:13.143Z,3.66
2018-02-22T23:47:41.535Z,2.78
2018-02-22T23:50:09.937Z,3.70
2018-02-22T23:52:38.348Z,4.17
2018-02-22T23:55:06.802Z,4.14
2018-02-22T23:57:35.184Z,3.17
